This is the latest recevied weather packets stored in our database for station/object ALTO-WX. If no packets are shown the sender has not sent any weather packets the latest 1 day(s).
| Time | Temp. | Humidity | Pressure | Rain* | Wind** | Luminosity | Snow |
|---|---|---|---|---|---|---|---|
| 1777983335 | 10.56° C | 57% | 974.1 hPa | 0 mm | 3.13 m/s, 320° | - | - |
| 1777982477 | 10.56° C | 57% | 974.1 hPa | 0 mm | 3.58 m/s, 328° | - | - |
| 1777981536 | 10.56° C | 59% | 973.9 hPa | 0 mm | 4.02 m/s, 317° | - | - |
| 1777980653 | 10.56° C | 64% | 972.4 hPa | 0 mm | 4.47 m/s, 328° | - | - |
| 1777979735 | 10° C | 64% | 972.3 hPa | 0 mm | 4.47 m/s, 340° | - | - |
| 1777978871 | 10° C | 64% | 972.3 hPa | 0 mm | 4.92 m/s, 330° | - | - |
| 1777977935 | 10.56° C | 49% | 970.9 hPa | 0 mm | 4.47 m/s, 298° | - | - |
| 1777977054 | 10.56° C | 49% | 970.9 hPa | 0 mm | 4.92 m/s, 286° | - | - |
| 1777976135 | 11.11° C | 49% | 970.9 hPa | 0 mm | 4.47 m/s, 283° | - | - |
| 1777975269 | 11.11° C | 49% | 970.9 hPa | 0 mm | 4.47 m/s, 269° | - | - |
| 1777974335 | 11.11° C | 50% | 971.2 hPa | 0 mm | 4.02 m/s, 269° | - | - |
| 1777973458 | 11.67° C | 49% | 970.7 hPa | 0 mm | 4.02 m/s, 266° | - | - |
| 1777972535 | 11.67° C | 49% | 970.7 hPa | 0 mm | 4.47 m/s, 249° | - | - |
| 1777971673 | 11.67° C | 49% | 970.7 hPa | 0 mm | 4.02 m/s, 258° | - | - |
| 1777970734 | 12.22° C | 66% | 971.2 hPa | 0 mm | 4.02 m/s, 269° | - | - |
| 1777969854 | 11.67° C | 70% | 970.4 hPa | 0 mm | 4.47 m/s, 260° | - | - |
| 1777968935 | 11.67° C | 70% | 970.4 hPa | 0 mm | 4.47 m/s, 246° | - | - |
| 1777968066 | 12.22° C | 58% | 970.6 hPa | 0 mm | 4.92 m/s, 244° | - | - |
| 1777967136 | 12.22° C | 71% | 969.8 hPa | 0 mm | 5.36 m/s, 247° | - | - |
| 1777966256 | 12.78° C | 71% | 969.8 hPa | 0 mm | 4.47 m/s, 243° | - | - |
* Rain latest hour (hover to see other rain measurements)
** Current wind speed in m/s (hover to see current wind gust speed)